sensor_id;sensor_type;location;lat;lon;timestamp;P1;durP1;ratioP1;P2;durP2;ratioP2
14092;SDS011;7123;49.468;10.992;2023-05-10T00:01:17;5.47;;;4.63;;
14092;SDS011;7123;49.468;10.992;2023-05-10T00:03:44;4.23;;;4.00;;
14092;SDS011;7123;49.468;10.992;2023-05-10T00:06:11;4.43;;;4.00;;
14092;SDS011;7123;49.468;10.992;2023-05-10T00:08:38;4.50;;;4.17;;
14092;SDS011;7123;49.468;10.992;2023-05-10T00:11:04;4.40;;;4.00;;
14092;SDS011;7123;49.468;10.992;2023-05-10T00:13:31;4.80;;;4.40;;
14092;SDS011;7123;49.468;10.992;2023-05-10T00:15:58;5.97;;;5.40;;
14092;SDS011;7123;49.468;10.992;2023-05-10T00:18:24;5.27;;;4.87;;
14092;SDS011;7123;49.468;10.992;2023-05-10T00:20:51;5.37;;;4.97;;
14092;SDS011;7123;49.468;10.992;2023-05-10T00:23:18;4.60;;;4.20;;
14092;SDS011;7123;49.468;10.992;2023-05-10T00:25:45;4.80;;;4.40;;
14092;SDS011;7123;49.468;10.992;2023-05-10T00:28:11;5.67;;;4.50;;
14092;SDS011;7123;49.468;10.992;2023-05-10T00:30:38;5.20;;;4.80;;
14092;SDS011;7123;49.468;10.992;2023-05-10T00:33:05;5.33;;;4.40;;
14092;SDS011;7123;49.468;10.992;2023-05-10T00:35:31;4.73;;;4.33;;
14092;SDS011;7123;49.468;10.992;2023-05-10T00:37:58;4.90;;;4.50;;
14092;SDS011;7123;49.468;10.992;2023-05-10T00:40:25;5.50;;;5.00;;
14092;SDS011;7123;49.468;10.992;2023-05-10T00:42:51;5.20;;;4.70;;
14092;SDS011;7123;49.468;10.992;2023-05-10T00:45:18;6.07;;;4.73;;
14092;SDS011;7123;49.468;10.992;2023-05-10T00:47:45;4.67;;;4.37;;
14092;SDS011;7123;49.468;10.992;2023-05-10T00:50:12;5.43;;;4.90;;
14092;SDS011;7123;49.468;10.992;2023-05-10T00:52:40;5.27;;;4.87;;
14092;SDS011;7123;49.468;10.992;2023-05-10T00:55:09;4.90;;;4.30;;
14092;SDS011;7123;49.468;10.992;2023-05-10T00:57:37;5.43;;;4.37;;
14092;SDS011;7123;49.468;10.992;2023-05-10T01:00:04;4.13;;;3.83;;
14092;SDS011;7123;49.468;10.992;2023-05-10T01:02:33;5.10;;;4.70;;
14092;SDS011;7123;49.468;10.992;2023-05-10T01:05:01;5.00;;;4.53;;
14092;SDS011;7123;49.468;10.992;2023-05-10T01:07:30;4.70;;;4.40;;
14092;SDS011;7123;49.468;10.992;2023-05-10T01:09:56;5.23;;;4.73;;
14092;SDS011;7123;49.468;10.992;2023-05-10T01:12:24;4.13;;;3.87;;
14092;SDS011;7123;49.468;10.992;2023-05-10T01:14:51;4.97;;;4.57;;
14092;SDS011;7123;49.468;10.992;2023-05-10T01:17:18;4.90;;;4.50;;
14092;SDS011;7123;49.468;10.992;2023-05-10T01:19:46;5.10;;;4.40;;
14092;SDS011;7123;49.468;10.992;2023-05-10T01:22:25;4.23;;;3.83;;
14092;SDS011;7123;49.468;10.992;2023-05-10T01:35:43;4.27;;;3.97;;
14092;SDS011;7123;49.468;10.992;2023-05-10T01:43:35;4.83;;;4.00;;
14092;SDS011;7123;49.468;10.992;2023-05-10T01:46:14;3.73;;;3.33;;
14092;SDS011;7123;49.468;10.992;2023-05-10T01:48:51;3.87;;;3.67;;
14092;SDS011;7123;49.468;10.992;2023-05-10T01:51:22;3.60;;;3.40;;
14092;SDS011;7123;49.468;10.992;2023-05-10T01:53:51;3.70;;;3.40;;
14092;SDS011;7123;49.468;10.992;2023-05-10T01:56:25;3.53;;;3.27;;
14092;SDS011;7123;49.468;10.992;2023-05-10T01:58:54;3.60;;;3.30;;
14092;SDS011;7123;49.468;10.992;2023-05-10T02:01:22;3.37;;;3.13;;
14092;SDS011;7123;49.468;10.992;2023-05-10T02:03:52;3.63;;;3.40;;
14092;SDS011;7123;49.468;10.992;2023-05-10T02:06:21;3.40;;;3.20;;
14092;SDS011;7123;49.468;10.992;2023-05-10T02:08:49;3.00;;;2.80;;
14092;SDS011;7123;49.468;10.992;2023-05-10T02:11:18;3.57;;;3.27;;
14092;SDS011;7123;49.468;10.992;2023-05-10T02:13:47;3.13;;;2.93;;
14092;SDS011;7123;49.468;10.992;2023-05-10T02:16:16;3.23;;;2.93;;
14092;SDS011;7123;49.468;10.992;2023-05-10T02:18:44;2.80;;;2.60;;
14092;SDS011;7123;49.468;10.992;2023-05-10T02:21:12;3.00;;;2.80;;
14092;SDS011;7123;49.468;10.992;2023-05-10T02:23:41;2.90;;;2.70;;
14092;SDS011;7123;49.468;10.992;2023-05-10T02:26:09;2.50;;;2.40;;
14092;SDS011;7123;49.468;10.992;2023-05-10T02:28:38;2.50;;;2.40;;
14092;SDS011;7123;49.468;10.992;2023-05-10T02:31:06;2.53;;;2.20;;
14092;SDS011;7123;49.468;10.992;2023-05-10T02:33:36;2.80;;;2.10;;
14092;SDS011;7123;49.468;10.992;2023-05-10T02:36:05;3.50;;;3.30;;
14092;SDS011;7123;49.468;10.992;2023-05-10T02:38:34;3.23;;;2.67;;
14092;SDS011;7123;49.468;10.992;2023-05-10T02:41:02;2.93;;;2.70;;
14092;SDS011;7123;49.468;10.992;2023-05-10T02:43:32;2.63;;;2.50;;
14092;SDS011;7123;49.468;10.992;2023-05-10T02:45:59;2.50;;;2.30;;
14092;SDS011;7123;49.468;10.992;2023-05-10T02:48:26;2.73;;;2.53;;
14092;SDS011;7123;49.468;10.992;2023-05-10T02:50:54;2.67;;;2.43;;
14092;SDS011;7123;49.468;10.992;2023-05-10T02:53:33;5.23;;;2.40;;
14092;SDS011;7123;49.468;10.992;2023-05-10T02:56:04;2.87;;;2.67;;
14092;SDS011;7123;49.468;10.992;2023-05-10T02:58:35;3.50;;;3.20;;
14092;SDS011;7123;49.468;10.992;2023-05-10T03:01:02;2.70;;;2.60;;
14092;SDS011;7123;49.468;10.992;2023-05-10T03:03:29;3.03;;;2.83;;
14092;SDS011;7123;49.468;10.992;2023-05-10T03:05:55;2.60;;;2.40;;
14092;SDS011;7123;49.468;10.992;2023-05-10T03:08:24;4.73;;;2.10;;
14092;SDS011;7123;49.468;10.992;2023-05-10T03:13:39;2.50;;;2.40;;
14092;SDS011;7123;49.468;10.992;2023-05-10T03:16:24;1.93;;;1.83;;
14092;SDS011;7123;49.468;10.992;2023-05-10T03:18:58;3.47;;;2.43;;
14092;SDS011;7123;49.468;10.992;2023-05-10T03:21:37;2.40;;;1.80;;
14092;SDS011;7123;49.468;10.992;2023-05-10T03:24:08;1.77;;;1.67;;
14092;SDS011;7123;49.468;10.992;2023-05-10T03:26:38;1.33;;;1.20;;
14092;SDS011;7123;49.468;10.992;2023-05-10T03:29:06;1.50;;;1.40;;
14092;SDS011;7123;49.468;10.992;2023-05-10T03:31:34;1.60;;;1.20;;
14092;SDS011;7123;49.468;10.992;2023-05-10T03:34:00;1.00;;;1.00;;
14092;SDS011;7123;49.468;10.992;2023-05-10T03:36:27;0.87;;;0.87;;
14092;SDS011;7123;49.468;10.992;2023-05-10T03:38:54;0.77;;;0.77;;
14092;SDS011;7123;49.468;10.992;2023-05-10T03:41:20;0.97;;;0.97;;
14092;SDS011;7123;49.468;10.992;2023-05-10T03:43:47;0.60;;;0.60;;
14092;SDS011;7123;49.468;10.992;2023-05-10T03:46:14;0.77;;;0.70;;
14092;SDS011;7123;49.468;10.992;2023-05-10T03:48:41;0.50;;;0.50;;
14092;SDS011;7123;49.468;10.992;2023-05-10T03:51:07;1.10;;;0.63;;
14092;SDS011;7123;49.468;10.992;2023-05-10T03:53:34;1.47;;;0.70;;
14092;SDS011;7123;49.468;10.992;2023-05-10T03:56:01;0.60;;;0.60;;
14092;SDS011;7123;49.468;10.992;2023-05-10T03:58:28;0.77;;;0.70;;
14092;SDS011;7123;49.468;10.992;2023-05-10T04:00:54;0.60;;;0.60;;
14092;SDS011;7123;49.468;10.992;2023-05-10T04:03:22;0.60;;;0.60;;
14092;SDS011;7123;49.468;10.992;2023-05-10T04:05:49;0.50;;;0.50;;
14092;SDS011;7123;49.468;10.992;2023-05-10T04:08:28;0.60;;;0.60;;
14092;SDS011;7123;49.468;10.992;2023-05-10T04:11:04;0.60;;;0.50;;
14092;SDS011;7123;49.468;10.992;2023-05-10T04:13:31;0.40;;;0.40;;
14092;SDS011;7123;49.468;10.992;2023-05-10T04:15:58;1.50;;;0.60;;
14092;SDS011;7123;49.468;10.992;2023-05-10T04:18:25;1.33;;;0.37;;
14092;SDS011;7123;49.468;10.992;2023-05-10T04:20:52;0.50;;;0.50;;
14092;SDS011;7123;49.468;10.992;2023-05-10T04:23:19;0.60;;;0.60;;
14092;SDS011;7123;49.468;10.992;2023-05-10T04:25:45;1.03;;;0.53;;
14092;SDS011;7123;49.468;10.992;2023-05-10T04:28:12;0.37;;;0.37;;
14092;SDS011;7123;49.468;10.992;2023-05-10T04:30:39;3.10;;;0.50;;
14092;SDS011;7123;49.468;10.992;2023-05-10T04:33:06;0.60;;;0.60;;
14092;SDS011;7123;49.468;10.992;2023-05-10T04:35:33;0.53;;;0.53;;
14092;SDS011;7123;49.468;10.992;2023-05-10T04:38:01;0.43;;;0.43;;
14092;SDS011;7123;49.468;10.992;2023-05-10T04:40:27;0.40;;;0.40;;
14092;SDS011;7123;49.468;10.992;2023-05-10T04:42:54;0.60;;;0.60;;
14092;SDS011;7123;49.468;10.992;2023-05-10T04:45:21;4.83;;;0.50;;
14092;SDS011;7123;49.468;10.992;2023-05-10T04:47:48;0.63;;;0.50;;
14092;SDS011;7123;49.468;10.992;2023-05-10T04:50:15;0.57;;;0.57;;
14092;SDS011;7123;49.468;10.992;2023-05-10T04:52:42;0.83;;;0.50;;
14092;SDS011;7123;49.468;10.992;2023-05-10T04:55:08;0.60;;;0.60;;
14092;SDS011;7123;49.468;10.992;2023-05-10T04:57:39;0.67;;;0.63;;
14092;SDS011;7123;49.468;10.992;2023-05-10T05:00:05;0.83;;;0.60;;
14092;SDS011;7123;49.468;10.992;2023-05-10T05:02:32;0.60;;;0.60;;
14092;SDS011;7123;49.468;10.992;2023-05-10T05:04:59;1.70;;;0.50;;
14092;SDS011;7123;49.468;10.992;2023-05-10T05:07:26;0.40;;;0.40;;
14092;SDS011;7123;49.468;10.992;2023-05-10T05:09:53;0.50;;;0.50;;
14092;SDS011;7123;49.468;10.992;2023-05-10T05:12:19;0.50;;;0.50;;
14092;SDS011;7123;49.468;10.992;2023-05-10T05:14:49;0.50;;;0.50;;
14092;SDS011;7123;49.468;10.992;2023-05-10T05:17:15;0.50;;;0.50;;
14092;SDS011;7123;49.468;10.992;2023-05-10T05:19:42;1.90;;;0.77;;
14092;SDS011;7123;49.468;10.992;2023-05-10T05:22:09;0.60;;;0.40;;
14092;SDS011;7123;49.468;10.992;2023-05-10T05:24:36;1.37;;;0.50;;
14092;SDS011;7123;49.468;10.992;2023-05-10T05:27:05;0.50;;;0.50;;
14092;SDS011;7123;49.468;10.992;2023-05-10T05:29:33;0.70;;;0.70;;
14092;SDS011;7123;49.468;10.992;2023-05-10T05:31:59;0.60;;;0.60;;
14092;SDS011;7123;49.468;10.992;2023-05-10T05:34:26;3.47;;;0.97;;
14092;SDS011;7123;49.468;10.992;2023-05-10T05:36:53;0.70;;;0.70;;
14092;SDS011;7123;49.468;10.992;2023-05-10T05:39:20;1.90;;;0.73;;
14092;SDS011;7123;49.468;10.992;2023-05-10T05:41:46;0.70;;;0.70;;
14092;SDS011;7123;49.468;10.992;2023-05-10T05:44:13;1.03;;;0.80;;
14092;SDS011;7123;49.468;10.992;2023-05-10T05:46:40;0.80;;;0.80;;
14092;SDS011;7123;49.468;10.992;2023-05-10T05:49:06;1.07;;;1.00;;
14092;SDS011;7123;49.468;10.992;2023-05-10T05:51:33;0.90;;;0.90;;
14092;SDS011;7123;49.468;10.992;2023-05-10T05:54:01;0.90;;;0.90;;
14092;SDS011;7123;49.468;10.992;2023-05-10T05:56:30;2.83;;;1.00;;
14092;SDS011;7123;49.468;10.992;2023-05-10T05:58:56;3.00;;;0.87;;
14092;SDS011;7123;49.468;10.992;2023-05-10T06:01:23;0.80;;;0.80;;
14092;SDS011;7123;49.468;10.992;2023-05-10T06:03:50;0.87;;;0.87;;
14092;SDS011;7123;49.468;10.992;2023-05-10T06:06:18;0.90;;;0.90;;
14092;SDS011;7123;49.468;10.992;2023-05-10T06:08:45;1.27;;;1.17;;
14092;SDS011;7123;49.468;10.992;2023-05-10T06:11:12;1.00;;;0.90;;
14092;SDS011;7123;49.468;10.992;2023-05-10T06:13:38;1.53;;;0.80;;
14092;SDS011;7123;49.468;10.992;2023-05-10T06:16:05;1.30;;;1.20;;
14092;SDS011;7123;49.468;10.992;2023-05-10T06:18:32;1.03;;;1.00;;
14092;SDS011;7123;49.468;10.992;2023-05-10T06:20:59;3.10;;;1.10;;
14092;SDS011;7123;49.468;10.992;2023-05-10T06:23:26;1.23;;;1.23;;
14092;SDS011;7123;49.468;10.992;2023-05-10T06:25:52;1.00;;;1.00;;
14092;SDS011;7123;49.468;10.992;2023-05-10T06:28:19;3.23;;;1.17;;
14092;SDS011;7123;49.468;10.992;2023-05-10T06:30:46;1.40;;;1.10;;
14092;SDS011;7123;49.468;10.992;2023-05-10T06:33:12;1.20;;;1.10;;
14092;SDS011;7123;49.468;10.992;2023-05-10T06:35:39;1.20;;;1.20;;
14092;SDS011;7123;49.468;10.992;2023-05-10T06:38:06;2.20;;;1.30;;
14092;SDS011;7123;49.468;10.992;2023-05-10T06:40:33;1.13;;;1.00;;
14092;SDS011;7123;49.468;10.992;2023-05-10T06:42:59;2.67;;;1.07;;
14092;SDS011;7123;49.468;10.992;2023-05-10T06:45:26;5.13;;;1.20;;
14092;SDS011;7123;49.468;10.992;2023-05-10T06:47:53;1.20;;;1.20;;
14092;SDS011;7123;49.468;10.992;2023-05-10T06:50:19;5.13;;;1.40;;
14092;SDS011;7123;49.468;10.992;2023-05-10T06:52:46;0.97;;;0.97;;
14092;SDS011;7123;49.468;10.992;2023-05-10T06:55:13;1.37;;;1.27;;
14092;SDS011;7123;49.468;10.992;2023-05-10T06:57:40;1.20;;;1.20;;
14092;SDS011;7123;49.468;10.992;2023-05-10T07:00:07;1.07;;;1.00;;
14092;SDS011;7123;49.468;10.992;2023-05-10T07:02:36;2.10;;;1.80;;
14092;SDS011;7123;49.468;10.992;2023-05-10T07:05:02;1.37;;;1.00;;
14092;SDS011;7123;49.468;10.992;2023-05-10T07:07:29;1.27;;;1.20;;
14092;SDS011;7123;49.468;10.992;2023-05-10T07:09:56;2.53;;;1.10;;
14092;SDS011;7123;49.468;10.992;2023-05-10T07:12:24;1.17;;;1.17;;
14092;SDS011;7123;49.468;10.992;2023-05-10T07:14:50;1.37;;;1.20;;
14092;SDS011;7123;49.468;10.992;2023-05-10T07:17:17;1.27;;;1.17;;
14092;SDS011;7123;49.468;10.992;2023-05-10T07:19:44;1.23;;;1.13;;
14092;SDS011;7123;49.468;10.992;2023-05-10T07:22:11;1.17;;;1.17;;
14092;SDS011;7123;49.468;10.992;2023-05-10T07:24:38;1.77;;;1.00;;
14092;SDS011;7123;49.468;10.992;2023-05-10T07:27:04;1.83;;;1.30;;
14092;SDS011;7123;49.468;10.992;2023-05-10T07:29:31;2.00;;;1.27;;
14092;SDS011;7123;49.468;10.992;2023-05-10T07:31:58;1.13;;;1.10;;
14092;SDS011;7123;49.468;10.992;2023-05-10T07:34:25;1.47;;;1.37;;
14092;SDS011;7123;49.468;10.992;2023-05-10T07:36:52;1.50;;;1.20;;
14092;SDS011;7123;49.468;10.992;2023-05-10T07:39:19;1.40;;;1.40;;
14092;SDS011;7123;49.468;10.992;2023-05-10T07:41:53;1.30;;;1.20;;
14092;SDS011;7123;49.468;10.992;2023-05-10T07:44:20;1.30;;;1.27;;
14092;SDS011;7123;49.468;10.992;2023-05-10T07:46:47;1.53;;;1.30;;
14092;SDS011;7123;49.468;10.992;2023-05-10T07:49:14;1.37;;;1.30;;
14092;SDS011;7123;49.468;10.992;2023-05-10T07:51:41;1.40;;;1.30;;
14092;SDS011;7123;49.468;10.992;2023-05-10T07:54:08;1.50;;;1.40;;
14092;SDS011;7123;49.468;10.992;2023-05-10T07:56:35;1.70;;;1.60;;
14092;SDS011;7123;49.468;10.992;2023-05-10T07:59:03;1.53;;;1.43;;
14092;SDS011;7123;49.468;10.992;2023-05-10T08:01:31;2.27;;;1.20;;
14092;SDS011;7123;49.468;10.992;2023-05-10T08:03:59;1.40;;;1.30;;
14092;SDS011;7123;49.468;10.992;2023-05-10T08:06:27;2.20;;;1.50;;
14092;SDS011;7123;49.468;10.992;2023-05-10T08:08:55;1.50;;;1.40;;
14092;SDS011;7123;49.468;10.992;2023-05-10T08:11:22;2.77;;;1.60;;
14092;SDS011;7123;49.468;10.992;2023-05-10T08:13:49;2.30;;;1.50;;
14092;SDS011;7123;49.468;10.992;2023-05-10T08:16:17;2.50;;;1.63;;
14092;SDS011;7123;49.468;10.992;2023-05-10T08:18:44;1.60;;;1.50;;
14092;SDS011;7123;49.468;10.992;2023-05-10T08:21:13;1.30;;;1.30;;
14092;SDS011;7123;49.468;10.992;2023-05-10T08:23:40;3.13;;;1.20;;
14092;SDS011;7123;49.468;10.992;2023-05-10T08:26:07;2.57;;;1.50;;
14092;SDS011;7123;49.468;10.992;2023-05-10T08:28:34;2.47;;;1.53;;
14092;SDS011;7123;49.468;10.992;2023-05-10T08:31:00;1.57;;;1.47;;
14092;SDS011;7123;49.468;10.992;2023-05-10T08:33:27;1.60;;;1.37;;
14092;SDS011;7123;49.468;10.992;2023-05-10T08:35:54;2.73;;;1.60;;
14092;SDS011;7123;49.468;10.992;2023-05-10T08:38:20;3.17;;;1.40;;
14092;SDS011;7123;49.468;10.992;2023-05-10T08:40:47;1.43;;;1.20;;
14092;SDS011;7123;49.468;10.992;2023-05-10T08:43:16;1.67;;;1.57;;
14092;SDS011;7123;49.468;10.992;2023-05-10T08:59:13;2.00;;;1.80;;
14092;SDS011;7123;49.468;10.992;2023-05-10T09:01:42;4.13;;;1.90;;
14092;SDS011;7123;49.468;10.992;2023-05-10T09:04:11;2.40;;;2.20;;
14092;SDS011;7123;49.468;10.992;2023-05-10T09:06:38;3.30;;;2.07;;
14092;SDS011;7123;49.468;10.992;2023-05-10T09:09:05;3.17;;;1.90;;
14092;SDS011;7123;49.468;10.992;2023-05-10T09:11:32;2.57;;;2.37;;
14092;SDS011;7123;49.468;10.992;2023-05-10T09:14:00;2.47;;;2.27;;
14092;SDS011;7123;49.468;10.992;2023-05-10T09:16:27;2.37;;;2.17;;
14092;SDS011;7123;49.468;10.992;2023-05-10T09:18:54;2.77;;;2.03;;
14092;SDS011;7123;49.468;10.992;2023-05-10T09:21:21;2.30;;;2.10;;
14092;SDS011;7123;49.468;10.992;2023-05-10T09:23:48;2.50;;;2.30;;
14092;SDS011;7123;49.468;10.992;2023-05-10T09:26:16;2.20;;;2.10;;
14092;SDS011;7123;49.468;10.992;2023-05-10T09:28:50;3.70;;;2.10;;
14092;SDS011;7123;49.468;10.992;2023-05-10T09:31:17;6.00;;;2.33;;
14092;SDS011;7123;49.468;10.992;2023-05-10T09:33:45;2.47;;;2.00;;
14092;SDS011;7123;49.468;10.992;2023-05-10T09:36:12;8.77;;;2.40;;
14092;SDS011;7123;49.468;10.992;2023-05-10T09:41:21;3.70;;;2.10;;
14092;SDS011;7123;49.468;10.992;2023-05-10T09:43:49;2.13;;;2.03;;
14092;SDS011;7123;49.468;10.992;2023-05-10T09:46:18;2.77;;;2.10;;
14092;SDS011;7123;49.468;10.992;2023-05-10T09:48:45;2.23;;;1.90;;
14092;SDS011;7123;49.468;10.992;2023-05-10T09:51:20;1.93;;;1.83;;
14092;SDS011;7123;49.468;10.992;2023-05-10T09:54:12;1.80;;;1.53;;
14092;SDS011;7123;49.468;10.992;2023-05-10T09:56:42;2.90;;;1.37;;
14092;SDS011;7123;49.468;10.992;2023-05-10T09:59:10;3.37;;;1.40;;
14092;SDS011;7123;49.468;10.992;2023-05-10T10:01:37;2.47;;;1.40;;
14092;SDS011;7123;49.468;10.992;2023-05-10T10:04:05;1.80;;;1.67;;
14092;SDS011;7123;49.468;10.992;2023-05-10T10:06:37;2.37;;;1.53;;
14092;SDS011;7123;49.468;10.992;2023-05-10T10:09:05;3.20;;;1.87;;
14092;SDS011;7123;49.468;10.992;2023-05-10T10:11:34;1.93;;;1.63;;
14092;SDS011;7123;49.468;10.992;2023-05-10T10:14:02;3.33;;;1.40;;
14092;SDS011;7123;49.468;10.992;2023-05-10T10:16:29;4.30;;;1.47;;
14092;SDS011;7123;49.468;10.992;2023-05-10T10:18:56;1.90;;;1.07;;
14092;SDS011;7123;49.468;10.992;2023-05-10T10:21:24;1.10;;;1.00;;
14092;SDS011;7123;49.468;10.992;2023-05-10T10:23:51;2.10;;;1.17;;
14092;SDS011;7123;49.468;10.992;2023-05-10T10:26:19;1.60;;;1.30;;
14092;SDS011;7123;49.468;10.992;2023-05-10T10:31:57;2.23;;;1.30;;
14092;SDS011;7123;49.468;10.992;2023-05-10T10:34:35;3.33;;;1.03;;
14092;SDS011;7123;49.468;10.992;2023-05-10T10:37:05;2.53;;;1.30;;
14092;SDS011;7123;49.468;10.992;2023-05-10T10:39:32;1.10;;;1.10;;
14092;SDS011;7123;49.468;10.992;2023-05-10T10:42:02;1.50;;;1.40;;
14092;SDS011;7123;49.468;10.992;2023-05-10T10:49:30;1.57;;;1.47;;
14092;SDS011;7123;49.468;10.992;2023-05-10T10:52:28;4.17;;;1.40;;
14092;SDS011;7123;49.468;10.992;2023-05-10T10:55:12;1.40;;;1.30;;
14092;SDS011;7123;49.468;10.992;2023-05-10T11:00:30;1.10;;;1.10;;
14092;SDS011;7123;49.468;10.992;2023-05-10T11:03:05;2.60;;;1.33;;
14092;SDS011;7123;49.468;10.992;2023-05-10T11:05:35;1.73;;;1.20;;
14092;SDS011;7123;49.468;10.992;2023-05-10T11:08:09;5.00;;;1.30;;
14092;SDS011;7123;49.468;10.992;2023-05-10T11:18:39;1.73;;;1.40;;
14092;SDS011;7123;49.468;10.992;2023-05-10T11:21:08;1.50;;;1.40;;
14092;SDS011;7123;49.468;10.992;2023-05-10T11:26:07;1.83;;;1.67;;
14092;SDS011;7123;49.468;10.992;2023-05-10T11:28:46;2.63;;;1.57;;
14092;SDS011;7123;49.468;10.992;2023-05-10T11:31:14;1.27;;;1.20;;
14092;SDS011;7123;49.468;10.992;2023-05-10T11:33:46;1.53;;;1.43;;
14092;SDS011;7123;49.468;10.992;2023-05-10T11:36:15;4.20;;;1.60;;
14092;SDS011;7123;49.468;10.992;2023-05-10T11:38:44;2.17;;;1.53;;
14092;SDS011;7123;49.468;10.992;2023-05-10T11:41:11;2.20;;;1.43;;
14092;SDS011;7123;49.468;10.992;2023-05-10T11:43:39;2.10;;;1.80;;
14092;SDS011;7123;49.468;10.992;2023-05-10T11:46:10;1.73;;;1.63;;
14092;SDS011;7123;49.468;10.992;2023-05-10T11:48:38;1.70;;;1.60;;
14092;SDS011;7123;49.468;10.992;2023-05-10T11:51:06;1.50;;;1.40;;
14092;SDS011;7123;49.468;10.992;2023-05-10T11:53:36;3.13;;;1.30;;
14092;SDS011;7123;49.468;10.992;2023-05-10T11:58:36;1.63;;;1.33;;
14092;SDS011;7123;49.468;10.992;2023-05-10T12:01:04;2.33;;;1.53;;
14092;SDS011;7123;49.468;10.992;2023-05-10T12:03:32;1.30;;;1.30;;
14092;SDS011;7123;49.468;10.992;2023-05-10T12:06:00;2.00;;;1.50;;
14092;SDS011;7123;49.468;10.992;2023-05-10T12:08:28;4.70;;;1.50;;
14092;SDS011;7123;49.468;10.992;2023-05-10T12:11:08;1.67;;;1.57;;
14092;SDS011;7123;49.468;10.992;2023-05-10T12:13:40;1.23;;;1.20;;
14092;SDS011;7123;49.468;10.992;2023-05-10T12:18:45;1.80;;;1.30;;
14092;SDS011;7123;49.468;10.992;2023-05-10T12:21:15;1.70;;;1.60;;
14092;SDS011;7123;49.468;10.992;2023-05-10T12:23:41;5.10;;;1.37;;
14092;SDS011;7123;49.468;10.992;2023-05-10T12:26:11;1.80;;;1.33;;
14092;SDS011;7123;49.468;10.992;2023-05-10T12:28:37;1.83;;;1.40;;
14092;SDS011;7123;49.468;10.992;2023-05-10T12:31:05;1.20;;;1.10;;
14092;SDS011;7123;49.468;10.992;2023-05-10T12:33:40;1.13;;;1.13;;
14092;SDS011;7123;49.468;10.992;2023-05-10T12:36:12;1.40;;;1.40;;
14092;SDS011;7123;49.468;10.992;2023-05-10T12:38:41;2.30;;;1.07;;
14092;SDS011;7123;49.468;10.992;2023-05-10T12:41:14;2.00;;;0.90;;
14092;SDS011;7123;49.468;10.992;2023-05-10T12:43:44;1.10;;;1.10;;
14092;SDS011;7123;49.468;10.992;2023-05-10T12:46:15;1.07;;;1.07;;
14092;SDS011;7123;49.468;10.992;2023-05-10T12:48:44;1.10;;;1.10;;
14092;SDS011;7123;49.468;10.992;2023-05-10T12:51:12;1.77;;;1.20;;
14092;SDS011;7123;49.468;10.992;2023-05-10T12:53:41;1.20;;;1.20;;
14092;SDS011;7123;49.468;10.992;2023-05-10T12:56:11;2.17;;;1.10;;
14092;SDS011;7123;49.468;10.992;2023-05-10T12:58:38;1.63;;;1.53;;
14092;SDS011;7123;49.468;10.992;2023-05-10T13:01:05;1.37;;;1.37;;
14092;SDS011;7123;49.468;10.992;2023-05-10T13:03:32;2.93;;;1.53;;
14092;SDS011;7123;49.468;10.992;2023-05-10T13:05:58;1.80;;;1.70;;
14092;SDS011;7123;49.468;10.992;2023-05-10T13:08:25;1.60;;;1.43;;
14092;SDS011;7123;49.468;10.992;2023-05-10T13:10:52;2.30;;;1.20;;
14092;SDS011;7123;49.468;10.992;2023-05-10T13:13:19;2.70;;;1.30;;
14092;SDS011;7123;49.468;10.992;2023-05-10T13:15:46;1.90;;;1.47;;
14092;SDS011;7123;49.468;10.992;2023-05-10T13:18:12;4.20;;;1.70;;
14092;SDS011;7123;49.468;10.992;2023-05-10T13:20:39;1.53;;;1.40;;
14092;SDS011;7123;49.468;10.992;2023-05-10T13:23:06;2.77;;;1.40;;
14092;SDS011;7123;49.468;10.992;2023-05-10T13:25:32;1.50;;;1.40;;
14092;SDS011;7123;49.468;10.992;2023-05-10T13:28:00;2.90;;;1.53;;
14092;SDS011;7123;49.468;10.992;2023-05-10T13:30:27;1.87;;;1.37;;
14092;SDS011;7123;49.468;10.992;2023-05-10T13:32:54;1.88;;;1.40;;
14092;SDS011;7123;49.468;10.992;2023-05-10T13:35:21;2.83;;;1.30;;
14092;SDS011;7123;49.468;10.992;2023-05-10T13:37:48;1.40;;;1.30;;
14092;SDS011;7123;49.468;10.992;2023-05-10T13:40:16;1.40;;;1.30;;
14092;SDS011;7123;49.468;10.992;2023-05-10T13:42:43;2.63;;;1.23;;
14092;SDS011;7123;49.468;10.992;2023-05-10T13:45:09;1.57;;;0.90;;
14092;SDS011;7123;49.468;10.992;2023-05-10T13:47:39;2.10;;;0.80;;
14092;SDS011;7123;49.468;10.992;2023-05-10T13:50:06;1.57;;;0.60;;
14092;SDS011;7123;49.468;10.992;2023-05-10T13:52:33;2.60;;;1.20;;
14092;SDS011;7123;49.468;10.992;2023-05-10T13:55:00;0.80;;;0.80;;
14092;SDS011;7123;49.468;10.992;2023-05-10T13:57:26;0.90;;;0.90;;
14092;SDS011;7123;49.468;10.992;2023-05-10T13:59:54;1.03;;;0.93;;
14092;SDS011;7123;49.468;10.992;2023-05-10T14:02:23;0.77;;;0.77;;
14092;SDS011;7123;49.468;10.992;2023-05-10T14:04:50;0.87;;;0.87;;
14092;SDS011;7123;49.468;10.992;2023-05-10T14:07:17;1.73;;;0.90;;
14092;SDS011;7123;49.468;10.992;2023-05-10T14:09:44;1.10;;;1.10;;
14092;SDS011;7123;49.468;10.992;2023-05-10T14:12:11;3.17;;;0.97;;
14092;SDS011;7123;49.468;10.992;2023-05-10T14:14:37;1.20;;;1.10;;
14092;SDS011;7123;49.468;10.992;2023-05-10T14:17:05;1.00;;;1.00;;
14092;SDS011;7123;49.468;10.992;2023-05-10T14:19:31;0.93;;;0.93;;
14092;SDS011;7123;49.468;10.992;2023-05-10T14:21:59;0.90;;;0.90;;
14092;SDS011;7123;49.468;10.992;2023-05-10T14:24:26;1.67;;;1.20;;
14092;SDS011;7123;49.468;10.992;2023-05-10T14:26:53;1.57;;;1.10;;
14092;SDS011;7123;49.468;10.992;2023-05-10T14:29:20;1.97;;;1.10;;
14092;SDS011;7123;49.468;10.992;2023-05-10T14:31:47;1.87;;;1.10;;
14092;SDS011;7123;49.468;10.992;2023-05-10T14:34:14;5.27;;;1.33;;
14092;SDS011;7123;49.468;10.992;2023-05-10T14:36:40;3.73;;;1.20;;
14092;SDS011;7123;49.468;10.992;2023-05-10T14:39:07;1.40;;;1.10;;
14092;SDS011;7123;49.468;10.992;2023-05-10T14:41:36;1.60;;;1.10;;
14092;SDS011;7123;49.468;10.992;2023-05-10T14:44:03;1.53;;;1.43;;
14092;SDS011;7123;49.468;10.992;2023-05-10T14:46:29;1.27;;;1.27;;
14092;SDS011;7123;49.468;10.992;2023-05-10T14:48:57;1.67;;;1.57;;
14092;SDS011;7123;49.468;10.992;2023-05-10T14:51:23;1.67;;;1.57;;
14092;SDS011;7123;49.468;10.992;2023-05-10T14:53:50;3.47;;;1.70;;
14092;SDS011;7123;49.468;10.992;2023-05-10T14:56:17;1.73;;;1.30;;
14092;SDS011;7123;49.468;10.992;2023-05-10T14:58:43;1.87;;;1.23;;
14092;SDS011;7123;49.468;10.992;2023-05-10T15:01:10;1.43;;;1.30;;
14092;SDS011;7123;49.468;10.992;2023-05-10T15:03:37;3.17;;;1.20;;
14092;SDS011;7123;49.468;10.992;2023-05-10T15:06:04;1.10;;;1.10;;
14092;SDS011;7123;49.468;10.992;2023-05-10T15:08:31;0.70;;;0.70;;
14092;SDS011;7123;49.468;10.992;2023-05-10T15:10:58;1.27;;;0.77;;
14092;SDS011;7123;49.468;10.992;2023-05-10T15:13:25;0.43;;;0.43;;
14092;SDS011;7123;49.468;10.992;2023-05-10T15:15:51;0.60;;;0.60;;
14092;SDS011;7123;49.468;10.992;2023-05-10T15:18:18;1.13;;;0.80;;
14092;SDS011;7123;49.468;10.992;2023-05-10T15:20:45;0.53;;;0.53;;
14092;SDS011;7123;49.468;10.992;2023-05-10T15:23:12;0.77;;;0.70;;
14092;SDS011;7123;49.468;10.992;2023-05-10T15:25:38;0.47;;;0.47;;
14092;SDS011;7123;49.468;10.992;2023-05-10T15:28:05;0.53;;;0.50;;
14092;SDS011;7123;49.468;10.992;2023-05-10T15:30:32;0.60;;;0.60;;
14092;SDS011;7123;49.468;10.992;2023-05-10T15:32:59;1.73;;;0.70;;
14092;SDS011;7123;49.468;10.992;2023-05-10T15:35:26;1.53;;;0.70;;
14092;SDS011;7123;49.468;10.992;2023-05-10T15:37:53;2.33;;;0.83;;
14092;SDS011;7123;49.468;10.992;2023-05-10T15:40:20;1.03;;;1.03;;
14092;SDS011;7123;49.468;10.992;2023-05-10T15:42:47;0.90;;;0.90;;
14092;SDS011;7123;49.468;10.992;2023-05-10T15:45:13;0.90;;;0.90;;
14092;SDS011;7123;49.468;10.992;2023-05-10T15:47:41;1.00;;;1.00;;
14092;SDS011;7123;49.468;10.992;2023-05-10T15:50:08;1.67;;;1.00;;
14092;SDS011;7123;49.468;10.992;2023-05-10T15:52:35;1.00;;;0.90;;
14092;SDS011;7123;49.468;10.992;2023-05-10T15:55:02;1.40;;;1.20;;